createdAt,value
2023-03-19T00:01:22.864Z,33.90
2023-03-19T00:08:13.435Z,35.20
2023-03-19T00:10:43.537Z,34.70
2023-03-19T00:13:11.795Z,35.10
2023-03-19T00:15:45.146Z,33.30
2023-03-19T00:18:13.977Z,36.60
2023-03-19T00:20:42.097Z,33.70
2023-03-19T00:23:10.552Z,37.70
2023-03-19T00:25:38.954Z,35.80
2023-03-19T00:28:08.553Z,36.80
2023-03-19T00:30:37.544Z,34.90
2023-03-19T00:33:05.875Z,36.30
2023-03-19T00:35:34.235Z,38.70
2023-03-19T00:38:03.830Z,37.10
2023-03-19T00:40:33.648Z,36.70
2023-03-19T00:43:01.818Z,37.60
2023-03-19T00:45:33.862Z,39.00
2023-03-19T00:48:03.624Z,37.50
2023-03-19T00:50:31.883Z,36.50
2023-03-19T00:53:02.211Z,35.40
2023-03-19T00:55:31.679Z,36.10
2023-03-19T00:58:04.207Z,38.60
2023-03-19T01:03:02.749Z,37.50
2023-03-19T01:05:31.764Z,35.30
2023-03-19T01:08:00.130Z,36.00
2023-03-19T01:10:28.395Z,38.00
2023-03-19T01:12:57.057Z,37.10
2023-03-19T01:15:25.206Z,37.80
2023-03-19T01:17:53.570Z,36.90
2023-03-19T01:20:25.326Z,36.90
2023-03-19T01:22:53.459Z,35.00
2023-03-19T01:25:22.276Z,36.70
2023-03-19T01:28:02.599Z,34.40
2023-03-19T01:30:31.594Z,33.60
2023-03-19T01:33:26.004Z,34.90
2023-03-19T01:36:02.829Z,33.10
2023-03-19T01:38:38.672Z,33.80
2023-03-19T01:41:10.831Z,36.60
2023-03-19T01:43:39.202Z,35.50
2023-03-19T01:46:31.032Z,38.00
2023-03-19T01:49:17.944Z,38.30
2023-03-19T01:51:50.205Z,38.00
2023-03-19T01:54:39.764Z,40.20
2023-03-19T01:57:22.377Z,40.50
2023-03-19T02:00:06.196Z,38.50
2023-03-19T02:02:48.844Z,38.70
2023-03-19T02:05:27.139Z,36.90
2023-03-19T02:08:02.003Z,38.50
2023-03-19T02:10:31.331Z,38.20
2023-03-19T02:12:59.605Z,35.80
2023-03-19T02:15:28.409Z,39.40
2023-03-19T02:17:56.641Z,35.80
2023-03-19T02:20:35.199Z,36.60
2023-03-19T02:23:04.431Z,36.90
2023-03-19T02:25:37.974Z,35.60
2023-03-19T02:28:11.223Z,37.30
2023-03-19T02:30:41.281Z,37.10
2023-03-19T02:33:14.238Z,35.40
2023-03-19T02:35:45.488Z,37.70
2023-03-19T02:38:15.024Z,36.90
2023-03-19T02:41:04.736Z,38.10
2023-03-19T02:43:34.474Z,36.10
2023-03-19T02:46:03.657Z,37.90
2023-03-19T02:48:32.863Z,35.70
2023-03-19T02:51:01.285Z,37.10
2023-03-19T02:53:35.230Z,35.10
2023-03-19T02:56:03.541Z,35.10
2023-03-19T02:58:31.853Z,32.60
2023-03-19T03:01:00.280Z,35.10
2023-03-19T03:03:29.563Z,35.80
2023-03-19T03:05:57.687Z,33.60
2023-03-19T03:08:28.352Z,31.20
2023-03-19T03:10:56.564Z,32.40
2023-03-19T03:13:25.910Z,32.60
2023-03-19T03:15:55.379Z,32.00
2023-03-19T03:18:23.720Z,33.40
2023-03-19T03:20:58.192Z,34.10
2023-03-19T03:23:26.607Z,32.80
2023-03-19T03:25:54.734Z,33.70
2023-03-19T03:28:25.076Z,31.80
2023-03-19T03:30:59.305Z,33.80
2023-03-19T03:33:27.481Z,31.10
2023-03-19T03:35:56.730Z,30.70
2023-03-19T03:38:25.686Z,32.60
2023-03-19T03:40:54.007Z,32.00
2023-03-19T03:43:23.185Z,35.20
2023-03-19T03:45:51.580Z,36.00
2023-03-19T03:48:19.864Z,31.90
2023-03-19T03:50:48.059Z,33.20
2023-03-19T03:53:20.990Z,33.90
2023-03-19T03:55:49.396Z,35.00
2023-03-19T03:58:20.067Z,32.30
2023-03-19T04:00:49.091Z,34.40
2023-03-19T04:03:19.748Z,36.50
2023-03-19T04:05:48.115Z,34.30
2023-03-19T04:08:17.225Z,36.20
2023-03-19T04:10:45.455Z,38.10
2023-03-19T04:13:13.870Z,37.90
2023-03-19T04:15:43.635Z,37.10
2023-03-19T04:18:12.389Z,35.70
2023-03-19T04:20:41.394Z,38.40
2023-03-19T04:23:10.256Z,36.00
2023-03-19T04:25:41.420Z,36.60
2023-03-19T04:28:13.075Z,36.30
2023-03-19T04:30:43.561Z,37.80
2023-03-19T04:33:12.093Z,40.90
2023-03-19T04:35:43.935Z,41.60
2023-03-19T04:38:12.389Z,40.60
2023-03-19T04:40:41.716Z,42.00
2023-03-19T04:43:11.119Z,44.30
2023-03-19T04:45:39.923Z,44.10
2023-03-19T04:48:08.859Z,44.80
2023-03-19T04:50:38.436Z,43.40
2023-03-19T04:53:10.721Z,46.10
2023-03-19T04:55:39.009Z,44.40
2023-03-19T04:58:15.270Z,45.60
2023-03-19T05:00:48.027Z,46.60
2023-03-19T05:03:19.731Z,45.00
2023-03-19T05:05:53.699Z,45.20
2023-03-19T05:08:23.135Z,45.80
2023-03-19T05:10:51.959Z,46.20
2023-03-19T05:13:25.215Z,45.60
2023-03-19T05:15:56.755Z,43.20
2023-03-19T05:18:26.268Z,41.30
2023-03-19T05:20:55.990Z,43.00
2023-03-19T05:23:24.876Z,43.30
2023-03-19T05:26:04.156Z,41.60
2023-03-19T05:28:52.190Z,44.20
2023-03-19T05:31:22.745Z,41.70
2023-03-19T05:33:53.801Z,42.10
2023-03-19T05:36:23.199Z,41.70
2023-03-19T05:39:02.098Z,40.70
2023-03-19T05:41:34.657Z,39.80
2023-03-19T05:44:05.226Z,39.60
2023-03-19T05:46:52.473Z,37.80
2023-03-19T05:49:22.216Z,38.90
2023-03-19T05:51:50.584Z,37.70
2023-03-19T05:54:19.557Z,38.60
2023-03-19T05:57:10.970Z,38.20
2023-03-19T06:00:02.049Z,42.10
2023-03-19T06:02:36.686Z,35.70
2023-03-19T06:05:23.365Z,37.00
2023-03-19T06:07:53.580Z,37.40
2023-03-19T06:10:44.968Z,36.90
2023-03-19T06:13:14.769Z,37.90
2023-03-19T06:15:54.582Z,39.00
2023-03-19T06:18:33.652Z,37.60
2023-03-19T06:21:06.052Z,36.40
2023-03-19T06:23:34.583Z,36.90
2023-03-19T06:26:07.976Z,36.80
2023-03-19T06:28:46.303Z,36.50
2023-03-19T06:31:14.843Z,37.90
2023-03-19T06:34:10.129Z,34.90
2023-03-19T06:36:41.057Z,34.70
2023-03-19T06:39:16.812Z,34.60
2023-03-19T06:41:46.728Z,31.90
2023-03-19T06:44:18.153Z,32.00
2023-03-19T06:46:48.407Z,31.60
2023-03-19T06:49:17.186Z,31.40
2023-03-19T06:51:45.660Z,30.40
2023-03-19T06:54:14.050Z,31.00
2023-03-19T06:56:42.747Z,30.20
2023-03-19T06:59:16.266Z,29.20
2023-03-19T07:01:46.889Z,27.10
2023-03-19T07:04:15.932Z,28.60
2023-03-19T07:06:46.099Z,29.20
2023-03-19T07:09:14.580Z,27.10
2023-03-19T07:11:43.074Z,27.40
2023-03-19T07:14:13.958Z,27.40
2023-03-19T07:16:42.495Z,22.30
2023-03-19T07:19:11.711Z,21.60
2023-03-19T07:21:39.813Z,16.90
2023-03-19T07:24:08.088Z,14.90
2023-03-19T07:26:37.991Z,12.80
2023-03-19T07:29:06.539Z,12.50
2023-03-19T07:31:35.021Z,13.50
2023-03-19T07:34:06.605Z,13.20
2023-03-19T07:36:34.861Z,16.90
2023-03-19T07:39:03.895Z,17.20
2023-03-19T07:41:32.084Z,15.10
2023-03-19T07:44:00.402Z,15.50
2023-03-19T07:46:34.194Z,13.60
2023-03-19T07:49:02.523Z,12.30
2023-03-19T07:51:30.758Z,13.80
2023-03-19T07:54:07.037Z,12.00
2023-03-19T07:56:35.465Z,11.40
2023-03-19T07:59:03.575Z,10.70
2023-03-19T08:01:33.291Z,9.40
2023-03-19T08:04:02.294Z,9.50
2023-03-19T08:06:31.957Z,9.30
2023-03-19T08:09:00.202Z,10.00
2023-03-19T08:11:30.070Z,9.80
2023-03-19T08:13:58.324Z,10.20
2023-03-19T08:16:26.486Z,10.90
2023-03-19T08:18:54.827Z,9.80
2023-03-19T08:21:23.077Z,9.10
2023-03-19T08:23:53.175Z,9.90
2023-03-19T08:26:21.361Z,9.90
2023-03-19T08:28:50.067Z,9.70
2023-03-19T08:31:18.389Z,9.80
2023-03-19T08:33:46.543Z,10.20
2023-03-19T08:36:14.754Z,9.40
2023-03-19T08:38:43.981Z,7.60
2023-03-19T08:41:12.480Z,7.40
2023-03-19T08:43:41.097Z,7.30
2023-03-19T08:46:09.389Z,8.10
2023-03-19T08:48:41.381Z,7.60
2023-03-19T08:51:13.065Z,7.20
2023-03-19T08:53:41.610Z,9.90
2023-03-19T08:56:09.737Z,7.90
2023-03-19T08:58:42.917Z,7.50
2023-03-19T09:01:12.768Z,9.10
2023-03-19T09:03:42.106Z,7.90
2023-03-19T09:06:10.657Z,8.60
2023-03-19T09:08:58.015Z,8.50
2023-03-19T09:11:27.468Z,7.40
2023-03-19T09:13:57.315Z,7.30
2023-03-19T09:16:26.423Z,7.80
2023-03-19T09:18:59.220Z,8.30
2023-03-19T09:21:28.857Z,8.30
2023-03-19T09:23:57.133Z,7.40
2023-03-19T09:26:25.233Z,6.80
2023-03-19T09:28:53.327Z,8.40
2023-03-19T09:31:29.768Z,7.40
2023-03-19T09:33:58.206Z,8.40
2023-03-19T09:36:26.740Z,7.30
2023-03-19T09:38:55.142Z,8.80
2023-03-19T09:41:32.256Z,9.30
2023-03-19T09:44:20.506Z,8.70
2023-03-19T09:46:55.053Z,7.40
2023-03-19T09:49:32.859Z,9.00
2023-03-19T09:52:09.485Z,9.00
2023-03-19T09:54:46.527Z,8.00
2023-03-19T09:57:15.182Z,7.80
2023-03-19T09:59:43.757Z,7.40
2023-03-19T10:02:30.019Z,9.30
2023-03-19T10:05:10.055Z,8.80
2023-03-19T10:07:46.005Z,8.80
2023-03-19T10:10:22.010Z,9.10
2023-03-19T10:12:55.950Z,9.10
2023-03-19T10:15:35.411Z,8.10
2023-03-19T10:18:17.072Z,7.70
2023-03-19T10:21:01.303Z,8.90
2023-03-19T10:23:38.631Z,8.40
2023-03-19T10:26:11.147Z,8.90
2023-03-19T10:28:40.121Z,7.30
2023-03-19T10:31:29.261Z,8.50
2023-03-19T10:34:28.911Z,8.40
2023-03-19T10:37:05.130Z,8.10
2023-03-19T10:42:25.932Z,8.80
2023-03-19T10:44:56.528Z,8.60
2023-03-19T10:47:28.083Z,7.00
2023-03-19T10:49:57.265Z,8.30
2023-03-19T10:52:31.224Z,7.60
2023-03-19T10:55:13.926Z,8.80
2023-03-19T10:57:50.013Z,9.00
2023-03-19T11:00:20.526Z,8.00
2023-03-19T11:02:49.910Z,9.40
2023-03-19T11:05:21.385Z,7.80
2023-03-19T11:08:00.401Z,8.60
2023-03-19T11:10:30.342Z,7.80
2023-03-19T11:13:00.800Z,8.80
2023-03-19T11:15:38.385Z,9.20
2023-03-19T11:18:20.103Z,9.10
2023-03-19T11:20:59.836Z,8.40
2023-03-19T11:23:38.690Z,8.50
2023-03-19T11:26:07.700Z,8.50
2023-03-19T11:28:37.156Z,9.60
2023-03-19T11:31:19.737Z,10.10
2023-03-19T11:36:34.114Z,11.60
2023-03-19T11:39:42.555Z,9.10
2023-03-19T11:42:26.423Z,8.10
2023-03-19T11:45:13.522Z,7.40
2023-03-19T11:48:06.708Z,7.30
2023-03-19T11:50:47.145Z,8.40
2023-03-19T11:53:38.383Z,8.10
2023-03-19T11:56:16.070Z,7.70
2023-03-19T11:58:44.251Z,7.00
2023-03-19T12:01:12.389Z,6.60
2023-03-19T12:04:11.141Z,7.90
2023-03-19T12:06:42.906Z,7.50
2023-03-19T12:09:34.391Z,8.50
2023-03-19T12:12:25.444Z,8.00
2023-03-19T12:15:31.573Z,8.20
2023-03-19T12:18:24.198Z,8.50
2023-03-19T12:20:57.045Z,8.20
2023-03-19T12:23:36.941Z,7.80
2023-03-19T12:26:07.303Z,8.80
2023-03-19T12:28:36.676Z,7.90
2023-03-19T12:31:08.020Z,8.10
2023-03-19T12:33:44.986Z,8.20
2023-03-19T12:36:16.504Z,8.60
2023-03-19T12:41:27.343Z,8.70
2023-03-19T12:44:09.070Z,8.00
2023-03-19T12:47:31.854Z,8.60
2023-03-19T12:50:03.373Z,9.70
2023-03-19T12:52:39.737Z,8.40
2023-03-19T12:55:21.096Z,7.30
2023-03-19T12:57:57.388Z,7.90
2023-03-19T13:00:30.199Z,8.00
2023-03-19T13:03:19.315Z,8.20
2023-03-19T13:06:11.757Z,9.60
2023-03-19T13:09:07.594Z,7.40
2023-03-19T13:11:45.722Z,7.30
2023-03-19T13:14:25.744Z,7.70
2023-03-19T13:17:27.415Z,8.20
2023-03-19T13:20:01.612Z,7.90
2023-03-19T13:22:35.497Z,6.30
2023-03-19T13:25:03.893Z,5.70
2023-03-19T13:27:36.026Z,6.80
2023-03-19T13:30:07.888Z,7.90
2023-03-19T13:32:48.394Z,6.70
2023-03-19T13:35:26.258Z,7.10
2023-03-19T13:38:00.417Z,8.10
2023-03-19T13:40:51.565Z,7.60
2023-03-19T13:43:28.282Z,9.60
2023-03-19T13:46:17.784Z,8.60
2023-03-19T13:48:46.659Z,9.30
2023-03-19T13:51:19.350Z,9.00
2023-03-19T13:54:09.786Z,8.20
2023-03-19T13:57:05.034Z,8.80
2023-03-19T13:59:35.185Z,7.20
2023-03-19T14:02:26.746Z,8.00
2023-03-19T14:04:59.256Z,8.40
2023-03-19T14:07:29.288Z,7.60
2023-03-19T14:10:00.103Z,7.70
2023-03-19T14:12:37.704Z,8.70
2023-03-19T14:15:09.447Z,7.20
2023-03-19T14:17:42.721Z,9.00
2023-03-19T14:20:12.505Z,8.80
2023-03-19T14:22:56.672Z,6.70
2023-03-19T14:25:27.161Z,9.30
2023-03-19T14:27:59.451Z,8.60
2023-03-19T14:30:34.030Z,8.50
2023-03-19T14:33:04.601Z,9.30
2023-03-19T14:35:36.922Z,9.50
2023-03-19T14:38:15.696Z,8.20
2023-03-19T14:40:47.481Z,7.90
2023-03-19T14:43:34.865Z,8.90
2023-03-19T14:46:04.440Z,9.80
2023-03-19T14:48:38.723Z,8.60
2023-03-19T14:51:42.240Z,9.20
2023-03-19T14:54:40.972Z,8.70
2023-03-19T14:57:19.210Z,9.40
2023-03-19T14:59:49.129Z,9.30
2023-03-19T15:02:32.814Z,8.90
2023-03-19T15:05:02.202Z,9.20
2023-03-19T15:07:33.939Z,9.20
2023-03-19T15:10:06.451Z,9.30
2023-03-19T15:12:54.105Z,9.70
2023-03-19T15:15:31.696Z,9.40
2023-03-19T15:18:20.846Z,8.80
2023-03-19T15:20:54.408Z,9.40
2023-03-19T15:23:28.547Z,9.40
2023-03-19T15:26:01.126Z,9.70
2023-03-19T15:28:46.041Z,10.30
2023-03-19T15:31:31.094Z,9.80
2023-03-19T15:34:01.625Z,7.70
2023-03-19T15:36:32.327Z,8.20
2023-03-19T15:39:06.363Z,10.60
2023-03-19T15:41:36.619Z,16.20
2023-03-19T15:44:05.660Z,9.00
2023-03-19T15:46:34.927Z,8.10
2023-03-19T15:49:15.835Z,8.40
2023-03-19T15:51:45.058Z,7.90
2023-03-19T15:54:13.312Z,7.60
2023-03-19T15:56:41.871Z,7.50
2023-03-19T15:59:10.074Z,8.00
2023-03-19T16:01:38.630Z,8.20
2023-03-19T16:04:08.430Z,8.20
2023-03-19T16:06:37.775Z,7.80
2023-03-19T16:09:19.290Z,8.70
2023-03-19T16:11:47.836Z,10.20
2023-03-19T16:14:21.796Z,10.20
2023-03-19T16:16:49.884Z,9.60
2023-03-19T16:19:27.850Z,10.40
2023-03-19T16:21:56.387Z,10.50
2023-03-19T16:24:33.804Z,10.50
2023-03-19T16:27:07.147Z,11.00
2023-03-19T16:29:44.571Z,11.00
2023-03-19T16:32:24.205Z,11.90
2023-03-19T16:34:57.374Z,11.90
2023-03-19T16:37:42.565Z,17.00
2023-03-19T16:40:13.922Z,16.40
2023-03-19T16:42:48.292Z,14.60
2023-03-19T16:45:17.407Z,15.00
2023-03-19T16:47:49.655Z,14.90
2023-03-19T16:50:19.073Z,13.70
2023-03-19T16:52:47.451Z,13.70
2023-03-19T16:55:19.978Z,13.90
2023-03-19T16:57:54.576Z,17.20
2023-03-19T17:00:23.700Z,19.20
2023-03-19T17:02:53.341Z,20.30
2023-03-19T17:05:21.567Z,19.90
2023-03-19T17:07:55.581Z,18.80
2023-03-19T17:10:25.634Z,18.60
2023-03-19T17:12:54.489Z,17.90
2023-03-19T17:15:27.392Z,15.10
2023-03-19T17:17:57.384Z,13.90
2023-03-19T17:20:30.220Z,14.80
2023-03-19T17:22:58.478Z,14.50
2023-03-19T17:25:27.051Z,14.20
2023-03-19T17:27:55.285Z,13.90
2023-03-19T17:30:23.539Z,13.10
2023-03-19T17:32:52.495Z,13.70
2023-03-19T17:35:21.795Z,13.40
2023-03-19T17:37:50.539Z,15.30
2023-03-19T17:40:23.511Z,16.80
2023-03-19T17:42:51.797Z,18.90
2023-03-19T17:45:23.609Z,18.90
2023-03-19T17:47:58.258Z,20.90
2023-03-19T17:50:28.660Z,20.10
2023-03-19T17:52:57.204Z,22.10
2023-03-19T17:55:29.155Z,20.80
2023-03-19T17:57:57.693Z,20.70
2023-03-19T18:00:27.240Z,20.80
2023-03-19T18:02:55.605Z,19.00
2023-03-19T18:05:25.137Z,20.90
2023-03-19T18:07:55.431Z,22.80
2023-03-19T18:10:27.687Z,22.80
2023-03-19T18:12:56.228Z,20.20
2023-03-19T18:15:24.679Z,22.90
2023-03-19T18:17:56.408Z,27.40
2023-03-19T18:20:27.323Z,21.80
2023-03-19T18:22:58.909Z,20.40
2023-03-19T18:25:28.102Z,23.60
2023-03-19T18:27:56.311Z,22.70
2023-03-19T18:30:24.868Z,24.20
2023-03-19T18:32:56.135Z,24.10
2023-03-19T18:35:29.314Z,23.40
2023-03-19T18:37:57.487Z,26.00
2023-03-19T18:40:27.884Z,25.90
2023-03-19T18:42:56.591Z,27.20
2023-03-19T18:45:27.424Z,25.70
2023-03-19T18:47:57.088Z,30.60
2023-03-19T18:50:29.510Z,30.10
2023-03-19T18:52:57.927Z,26.80
2023-03-19T18:55:29.760Z,27.80
2023-03-19T18:57:59.766Z,27.90
2023-03-19T19:00:32.389Z,29.10
2023-03-19T19:03:00.815Z,26.40
2023-03-19T19:05:31.111Z,28.00
2023-03-19T19:08:01.282Z,25.30
2023-03-19T19:10:31.758Z,27.10
2023-03-19T19:12:59.896Z,26.40
2023-03-19T19:15:33.399Z,28.10
2023-03-19T19:18:23.723Z,29.70
2023-03-19T19:20:52.832Z,28.50
2023-03-19T19:25:57.965Z,27.10
2023-03-19T19:28:30.866Z,28.10
2023-03-19T19:31:02.891Z,26.20
2023-03-19T19:33:34.934Z,33.80
2023-03-19T19:36:03.794Z,39.50
2023-03-19T19:38:34.304Z,35.90
2023-03-19T19:41:02.513Z,36.90
2023-03-19T19:43:33.347Z,35.40
2023-03-19T19:46:01.883Z,37.20
2023-03-19T19:48:31.611Z,37.10
2023-03-19T19:50:59.910Z,37.50
2023-03-19T19:53:29.798Z,39.00
2023-03-19T19:56:16.651Z,39.10
2023-03-19T19:58:46.446Z,37.50
2023-03-19T20:01:16.718Z,39.70
2023-03-19T20:03:46.243Z,40.30
2023-03-19T20:06:14.378Z,38.80
2023-03-19T20:08:42.965Z,40.30
2023-03-19T20:11:21.298Z,38.30
2023-03-19T20:13:54.678Z,37.40
2023-03-19T20:16:24.701Z,36.50
2023-03-19T20:18:54.934Z,37.10
2023-03-19T20:21:23.184Z,35.70
2023-03-19T20:23:55.519Z,34.80
2023-03-19T20:26:24.084Z,33.90
2023-03-19T20:28:54.551Z,32.90
2023-03-19T20:31:30.035Z,31.30
2023-03-19T20:33:58.258Z,29.90
2023-03-19T20:36:26.901Z,30.70
2023-03-19T20:38:55.125Z,32.70
2023-03-19T20:41:26.021Z,32.50
2023-03-19T20:43:55.128Z,32.40
2023-03-19T20:46:28.768Z,30.80
2023-03-19T20:48:57.909Z,31.00
2023-03-19T20:51:31.599Z,33.20
2023-03-19T20:54:05.601Z,29.90
2023-03-19T20:56:33.794Z,31.40
2023-03-19T20:59:01.923Z,32.50
2023-03-19T21:01:31.400Z,32.50
2023-03-19T21:03:59.804Z,32.40
2023-03-19T21:06:27.914Z,34.40
2023-03-19T21:08:58.262Z,34.20
2023-03-19T21:11:39.274Z,34.30
2023-03-19T21:14:13.952Z,33.40
2023-03-19T21:16:42.464Z,32.20
2023-03-19T21:19:14.388Z,32.70
2023-03-19T21:21:43.423Z,34.50
2023-03-19T21:24:13.767Z,32.40
2023-03-19T21:26:44.566Z,33.20
2023-03-19T21:29:25.000Z,34.40
2023-03-19T21:31:58.062Z,35.40
2023-03-19T21:34:28.490Z,34.20
2023-03-19T21:36:57.018Z,32.30
2023-03-19T21:39:25.227Z,34.50
2023-03-19T21:41:53.819Z,36.30
2023-03-19T21:44:30.911Z,35.70
2023-03-19T21:46:59.902Z,35.80
2023-03-19T21:49:30.106Z,33.40
2023-03-19T21:51:58.248Z,35.80
2023-03-19T21:54:26.496Z,36.40
2023-03-19T21:56:59.125Z,35.60
2023-03-19T21:59:31.869Z,36.20
2023-03-19T22:02:00.319Z,36.80
2023-03-19T22:04:28.417Z,36.20
2023-03-19T22:06:57.462Z,36.80
2023-03-19T22:09:28.525Z,37.60
2023-03-19T22:11:58.275Z,37.00
2023-03-19T22:14:30.273Z,37.40
2023-03-19T22:16:58.446Z,36.70
2023-03-19T22:19:26.932Z,37.00
2023-03-19T22:21:55.358Z,37.30
2023-03-19T22:24:25.076Z,37.50
2023-03-19T22:26:56.785Z,37.50
2023-03-19T22:29:25.742Z,36.50
2023-03-19T22:31:54.739Z,37.20
2023-03-19T22:34:24.884Z,39.10
2023-03-19T22:36:55.796Z,38.40
2023-03-19T22:39:24.087Z,38.80
2023-03-19T22:41:55.711Z,39.70
2023-03-19T22:44:27.024Z,38.10
2023-03-19T22:46:56.144Z,37.30
2023-03-19T22:49:24.914Z,37.80
2023-03-19T22:51:53.387Z,37.90
2023-03-19T22:54:21.667Z,37.40
2023-03-19T22:56:50.510Z,39.10
2023-03-19T22:59:23.106Z,39.20
2023-03-19T23:01:51.696Z,39.70
2023-03-19T23:04:23.797Z,35.60
2023-03-19T23:06:53.175Z,38.70
2023-03-19T23:09:24.426Z,37.50
2023-03-19T23:11:53.747Z,38.00
2023-03-19T23:14:29.519Z,36.70
2023-03-19T23:17:15.113Z,37.50
2023-03-19T23:19:43.337Z,36.50
2023-03-19T23:22:15.524Z,38.00
2023-03-19T23:24:44.928Z,39.80
2023-03-19T23:27:32.748Z,38.10
2023-03-19T23:30:01.047Z,36.60
2023-03-19T23:32:35.322Z,38.70
2023-03-19T23:35:14.499Z,39.40
2023-03-19T23:37:43.125Z,38.30
2023-03-19T23:40:11.717Z,36.50
2023-03-19T23:42:42.244Z,38.30
2023-03-19T23:45:34.833Z,39.10
2023-03-19T23:48:06.149Z,38.20
2023-03-19T23:50:46.948Z,35.80
2023-03-19T23:53:25.851Z,35.80
2023-03-19T23:56:03.040Z,36.40
2023-03-19T23:58:43.368Z,36.10
